Terminal Aerodrome Forecast
Issued by NWS

Home | Current Version | Previous Version | Graphics & Text | Print | Product List | Glossary On
Versions: 1 2 3 4 5 6 7 8 9 10 11 12 13 14 15 16 17 18 19 20 21 22 23 24 25
000
FTUS43 KBIS 221700
TAFMOT
TAF
KMOT 221725Z 2218/2318 03007KT 2SM BR OVC005
      TEMPO 2218/2221 5SM BR OVC008
     FM222100 36014KT 6SM BR OVC012
     FM230300 34016KT 4SM BR OVC008=

USA.gov is the U.S. government's official web portal to all federal, state and local government web resources and services.